Time;durP1;ratioP1;P1;durP2;ratioP2;P2;SDS_P1;SDS_P2;PMS_P1;PMS_P2;Temp;Humidity;BMP_temperature;BMP_pressure;BME280_temperature;BME280_humidity;BME280_pressure;Samples;Min_cycle;Max_cycle;Signal;HPM_P1;HPM_P2
2021/03/22 00:00:53;;;;;;;23.57;10.50;;;4.20;99.90;;;;;;5007936;28;20191;-70
2021/03/22 00:03:20;;;;;;;29.77;10.57;;;4.10;99.90;;;;;;4994524;28;20482;-71
2021/03/22 00:05:46;;;;;;;19.77;9.23;;;4.10;99.90;;;;;;5006293;28;20430;-71
2021/03/22 00:08:12;;;;;;;17.10;10.93;;;4.00;99.90;;;;;;5002513;28;20430;-71
2021/03/22 00:10:43;;;;;;;28.57;10.43;;;3.90;99.90;;;;;;5006792;28;20433;-69
2021/03/22 00:13:09;;;;;;;20.17;10.23;;;3.90;99.90;;;;;;5011989;28;20269;-70
2021/03/22 00:15:36;;;;;;;24.00;10.70;;;3.90;99.90;;;;;;5009466;28;20909;-69
2021/03/22 00:18:04;;;;;;;22.97;10.50;;;4.00;99.90;;;;;;5003296;28;20795;-70
2021/03/22 00:20:30;;;;;;;20.30;10.80;;;4.00;99.90;;;;;;4998335;28;20578;-71
2021/03/22 00:22:55;;;;;;;22.90;9.70;;;4.10;99.90;;;;;;4996921;28;20492;-71
2021/03/22 00:25:21;;;;;;;26.77;10.80;;;4.10;99.90;;;;;;4996788;28;20180;-71
2021/03/22 00:27:47;;;;;;;24.20;11.10;;;4.10;99.90;;;;;;5006534;28;20186;-71
2021/03/22 00:30:21;;;;;;;26.33;10.77;;;4.20;99.90;;;;;;4998631;28;20191;-71
2021/03/22 00:32:48;;;;;;;24.23;10.50;;;4.20;99.90;;;;;;4994531;28;20434;-71
2021/03/22 00:35:13;;;;;;;30.20;8.63;;;4.30;99.90;;;;;;4997799;28;20472;-71
2021/03/22 00:37:39;;;;;;;17.87;8.33;;;4.30;99.90;;;;;;4999307;28;20434;-70
2021/03/22 00:40:05;;;;;;;20.97;9.00;;;4.30;99.90;;;;;;5002786;28;20208;-71
2021/03/22 00:42:31;;;;;;;26.77;10.17;;;4.30;99.90;;;;;;4995055;28;20183;-71
2021/03/22 00:44:56;;;;;;;12.80;9.00;;;4.40;99.90;;;;;;5003084;28;20462;-71
2021/03/22 00:47:22;;;;;;;21.37;8.40;;;4.40;99.90;;;;;;5004205;28;20206;-71
2021/03/22 00:49:47;;;;;;;20.83;9.23;;;4.30;99.90;;;;;;5012121;28;20681;-71
2021/03/22 00:52:13;;;;;;;18.53;8.87;;;4.40;99.90;;;;;;5001729;28;20567;-71
2021/03/22 00:54:40;;;;;;;19.73;10.13;;;4.40;99.90;;;;;;4999520;28;20206;-70
2021/03/22 00:57:07;;;;;;;18.30;9.00;;;4.40;99.90;;;;;;4991775;28;20183;-69
2021/03/22 00:59:33;;;;;;;31.53;8.70;;;4.50;99.90;;;;;;5003645;28;20470;-70
2021/03/22 01:01:59;;;;;;;25.43;10.00;;;4.50;99.90;;;;;;4999855;28;20850;-69
2021/03/22 01:04:24;;;;;;;19.07;8.67;;;4.40;99.90;;;;;;5000359;28;20815;-70
2021/03/22 01:06:50;;;;;;;20.47;9.07;;;4.40;99.90;;;;;;5000929;28;20602;-70
2021/03/22 01:09:15;;;;;;;22.53;9.17;;;4.50;99.90;;;;;;5009933;28;20561;-70
2021/03/22 01:11:41;;;;;;;26.07;8.30;;;4.50;99.90;;;;;;5005821;28;20204;-70
2021/03/22 01:14:06;;;;;;;17.97;7.47;;;4.50;99.90;;;;;;4992559;28;20282;-70
2021/03/22 01:16:35;;;;;;;11.97;8.07;;;4.50;99.90;;;;;;5006035;28;20186;-70
2021/03/22 01:19:09;;;;;;;23.53;7.80;;;4.50;99.90;;;;;;4998571;28;20179;-69
2021/03/22 01:21:49;;;;;;;16.63;6.93;;;4.50;99.90;;;;;;4993710;28;20431;-69
2021/03/22 01:24:16;;;;;;;24.37;8.00;;;4.50;99.90;;;;;;4999679;28;20452;-70
2021/03/22 01:26:42;;;;;;;18.17;7.97;;;4.40;99.90;;;;;;4999977;28;20456;-70
2021/03/22 01:29:17;;;;;;;21.90;7.80;;;4.40;99.90;;;;;;4997760;28;20506;-70
2021/03/22 01:31:43;;;;;;;27.93;8.33;;;4.40;99.90;;;;;;4999322;28;20171;-69
2021/03/22 01:34:09;;;;;;;16.43;6.73;;;4.40;99.90;;;;;;5004878;28;20501;-70
2021/03/22 01:36:36;;;;;;;22.17;8.27;;;4.40;99.90;;;;;;5001364;28;21001;-70
2021/03/22 01:39:09;;;;;;;16.73;6.90;;;4.40;99.90;;;;;;4992435;28;20267;-69
2021/03/22 01:41:44;;;;;;;21.40;8.70;;;4.40;99.90;;;;;;5000890;28;20462;-71
2021/03/22 01:44:22;;;;;;;22.93;9.20;;;4.40;99.90;;;;;;4992557;28;20985;-70
2021/03/22 01:46:57;;;;;;;19.50;7.07;;;4.30;99.90;;;;;;5005906;28;20425;-71
2021/03/22 01:49:26;;;;;;;14.90;6.20;;;4.40;99.90;;;;;;4994287;28;20423;-70
2021/03/22 01:51:52;;;;;;;20.53;7.10;;;4.40;99.90;;;;;;5005306;28;20431;-70
2021/03/22 01:54:18;;;;;;;19.53;7.00;;;4.40;99.90;;;;;;4991980;28;20450;-70
2021/03/22 01:56:55;;;;;;;17.97;6.90;;;4.40;99.90;;;;;;5004027;28;20425;-69
2021/03/22 01:59:28;;;;;;;23.10;6.30;;;4.40;99.90;;;;;;4994050;28;20184;-69
2021/03/22 02:01:59;;;;;;;13.80;6.67;;;4.40;99.90;;;;;;4992091;28;20430;-70
2021/03/22 02:04:25;;;;;;;16.73;7.00;;;4.40;99.90;;;;;;5010539;28;20445;-70
2021/03/22 02:06:51;;;;;;;19.73;7.00;;;4.40;99.90;;;;;;4996897;28;20443;-69
2021/03/22 02:09:17;;;;;;;18.87;8.87;;;4.40;99.90;;;;;;5010947;28;20855;-70
2021/03/22 02:11:42;;;;;;;17.33;6.67;;;4.40;99.90;;;;;;5001269;28;20178;-70
2021/03/22 02:14:10;;;;;;;16.83;7.83;;;4.40;99.90;;;;;;5002669;28;20985;-69
2021/03/22 02:16:55;;;;;;;16.90;6.50;;;4.40;99.90;;;;;;4992009;28;20190;-70
2021/03/22 02:19:26;;;;;;;27.07;7.97;;;4.30;99.90;;;;;;5002910;28;20430;-70
2021/03/22 02:22:10;;;;;;;14.63;8.33;;;4.30;99.90;;;;;;5008510;28;20434;-70
2021/03/22 02:25:01;;;;;;;18.83;6.60;;;4.40;99.90;;;;;;4997144;28;20447;-70
2021/03/22 02:27:48;;;;;;;22.87;7.20;;;4.40;99.90;;;;;;4995010;28;20454;-69
2021/03/22 02:30:32;;;;;;;20.27;7.30;;;4.40;99.90;;;;;;5003615;28;20513;-70
2021/03/22 02:32:58;;;;;;;15.10;6.50;;;4.40;99.90;;;;;;4991210;28;20975;-70
2021/03/22 02:35:29;;;;;;;21.73;7.27;;;4.30;99.90;;;;;;4998823;28;20429;-69
2021/03/22 02:38:12;;;;;;;21.73;7.57;;;4.30;99.90;;;;;;4998990;28;20238;-70
2021/03/22 02:40:45;;;;;;;18.43;6.27;;;4.30;99.90;;;;;;4997485;28;20453;-70
2021/03/22 02:43:11;;;;;;;24.63;6.20;;;4.30;99.90;;;;;;5009635;28;20623;-70
2021/03/22 02:45:41;;;;;;;23.13;7.50;;;4.40;99.90;;;;;;4996514;28;20981;-70
2021/03/22 02:48:14;;;;;;;17.43;5.90;;;4.30;99.90;;;;;;5006917;28;20167;-70
2021/03/22 02:50:41;;;;;;;17.03;6.60;;;4.30;99.90;;;;;;5006206;28;20538;-70
2021/03/22 02:53:37;;;;;;;15.07;6.43;;;4.30;99.90;;;;;;4998967;28;20444;-70
2021/03/22 02:56:35;;;;;;;24.00;6.03;;;4.30;99.90;;;;;;5006787;28;20441;-70
2021/03/22 02:59:09;;;;;;;20.80;6.20;;;4.20;99.90;;;;;;4988618;28;20498;-69
2021/03/22 03:01:53;;;;;;;17.77;6.07;;;4.20;99.90;;;;;;5014319;28;20459;-70
2021/03/22 03:04:20;;;;;;;11.20;5.63;;;4.20;99.90;;;;;;5012023;28;20503;-70
2021/03/22 03:06:50;;;;;;;28.60;6.50;;;4.20;99.90;;;;;;5008106;28;20480;-70
2021/03/22 03:09:17;;;;;;;20.77;7.47;;;4.20;99.90;;;;;;5000954;28;20441;-70
2021/03/22 03:11:43;;;;;;;16.03;5.90;;;4.20;99.90;;;;;;5008142;28;20923;-70
2021/03/22 03:14:09;;;;;;;18.40;6.00;;;4.20;99.90;;;;;;5004232;28;20452;-70
2021/03/22 03:16:35;;;;;;;27.93;7.57;;;4.10;99.90;;;;;;5013329;28;20425;-70
2021/03/22 03:19:00;;;;;;;20.27;6.83;;;4.10;99.90;;;;;;4998830;28;20209;-69
2021/03/22 03:21:26;;;;;;;20.03;5.80;;;4.10;99.90;;;;;;4994283;28;20204;-69
2021/03/22 03:23:52;;;;;;;18.03;5.30;;;4.00;99.90;;;;;;4996451;28;20274;-70
2021/03/22 03:26:18;;;;;;;22.27;5.87;;;4.00;99.90;;;;;;4994745;28;20527;-70
2021/03/22 03:28:44;;;;;;;14.63;5.50;;;4.00;99.90;;;;;;5008856;28;20433;-70
2021/03/22 03:31:09;;;;;;;22.67;7.27;;;4.00;99.90;;;;;;4996971;28;20175;-70
2021/03/22 03:33:35;;;;;;;20.70;6.27;;;4.00;99.90;;;;;;5001272;28;20287;-70
2021/03/22 03:36:00;;;;;;;21.73;5.10;;;4.00;99.90;;;;;;5000978;28;20190;-70
2021/03/22 03:38:26;;;;;;;22.03;5.57;;;4.00;99.90;;;;;;5013128;28;20555;-70
2021/03/22 03:40:51;;;;;;;15.27;6.13;;;4.00;99.90;;;;;;5004835;28;20203;-70
2021/03/22 03:43:18;;;;;;;15.80;5.37;;;4.00;99.90;;;;;;5012960;28;20206;-70
2021/03/22 03:45:46;;;;;;;19.57;6.10;;;4.00;99.90;;;;;;5012025;28;20211;-70
2021/03/22 03:48:18;;;;;;;14.50;5.70;;;4.00;99.90;;;;;;5012130;28;20920;-70
2021/03/22 03:50:44;;;;;;;11.10;5.43;;;4.00;99.90;;;;;;5009672;28;20508;-70
2021/03/22 03:53:11;;;;;;;18.33;5.17;;;4.00;99.90;;;;;;4998696;28;20490;-70
2021/03/22 03:55:37;;;;;;;14.67;5.70;;;4.00;99.90;;;;;;5007098;28;20171;-70
2021/03/22 03:58:03;;;;;;;13.67;4.90;;;4.00;99.90;;;;;;4980447;28;20437;-70
2021/03/22 04:00:30;;;;;;;21.97;6.10;;;4.00;99.90;;;;;;4999527;28;20987;-70
2021/03/22 04:02:57;;;;;;;17.23;6.40;;;4.00;99.90;;;;;;5004315;28;20431;-70
2021/03/22 04:05:25;;;;;;;23.03;5.60;;;4.00;99.90;;;;;;5010502;28;20962;-70
2021/03/22 04:07:51;;;;;;;20.37;6.00;;;4.00;99.90;;;;;;5005901;28;20433;-71
2021/03/22 04:10:17;;;;;;;16.73;5.60;;;4.00;99.90;;;;;;5004204;28;20438;-70
2021/03/22 04:12:43;;;;;;;16.57;5.83;;;3.90;99.90;;;;;;4993929;28;20179;-71
2021/03/22 04:15:12;;;;;;;18.37;8.60;;;3.90;99.90;;;;;;5008268;28;20261;-71
2021/03/22 04:17:37;;;;;;;17.07;5.83;;;3.90;99.90;;;;;;5000683;28;20421;-70
2021/03/22 04:20:04;;;;;;;16.27;5.23;;;4.00;99.90;;;;;;4988120;28;20981;-71
2021/03/22 04:22:30;;;;;;;14.87;5.67;;;4.00;99.90;;;;;;4996070;28;20259;-70
2021/03/22 04:24:56;;;;;;;20.33;5.73;;;4.00;99.90;;;;;;5005569;28;20488;-71
2021/03/22 04:27:21;;;;;;;21.13;6.27;;;4.00;99.90;;;;;;4979881;28;20170;-71
2021/03/22 04:29:47;;;;;;;14.63;5.50;;;4.00;99.90;;;;;;5001226;28;20552;-71
2021/03/22 04:32:12;;;;;;;19.83;6.77;;;4.00;99.90;;;;;;4993333;28;20686;-71
2021/03/22 04:34:38;;;;;;;14.07;6.20;;;4.00;99.90;;;;;;5019871;23;20215;-65
2021/03/22 04:37:04;;;;;;;15.90;5.23;;;4.00;99.90;;;;;;5012023;28;20254;-65
2021/03/22 04:39:29;;;;;;;22.47;7.40;;;4.00;99.90;;;;;;5012185;28;20225;-66
2021/03/22 04:41:55;;;;;;;13.13;5.13;;;4.00;99.90;;;;;;5012397;28;20927;-65
2021/03/22 04:44:21;;;;;;;23.43;6.63;;;4.00;99.90;;;;;;5004071;28;20652;-66
2021/03/22 04:46:46;;;;;;;13.17;5.90;;;4.00;99.90;;;;;;5012089;28;20179;-65
2021/03/22 04:49:12;;;;;;;17.13;6.60;;;4.00;99.90;;;;;;5008573;28;20187;-65
2021/03/22 04:51:37;;;;;;;16.33;6.70;;;4.00;99.90;;;;;;5011726;28;20236;-65
2021/03/22 04:54:03;;;;;;;18.73;6.73;;;4.10;99.90;;;;;;5011821;28;20199;-65
2021/03/22 04:56:29;;;;;;;18.73;5.93;;;4.10;99.90;;;;;;5010606;28;20186;-65
2021/03/22 04:58:54;;;;;;;20.87;5.70;;;4.10;99.90;;;;;;5011992;28;20610;-65
2021/03/22 05:01:20;;;;;;;11.90;4.43;;;4.10;99.90;;;;;;4998330;28;20234;-65
2021/03/22 05:03:45;;;;;;;17.70;5.70;;;4.10;99.90;;;;;;5011685;28;20226;-65
2021/03/22 05:06:11;;;;;;;17.30;6.03;;;4.10;99.90;;;;;;5011182;28;20241;-65
2021/03/22 05:08:37;;;;;;;18.37;5.00;;;4.10;99.90;;;;;;5010080;28;20234;-65
2021/03/22 05:11:02;;;;;;;20.77;5.97;;;4.10;99.90;;;;;;5011149;28;20266;-65
2021/03/22 05:13:28;;;;;;;14.40;4.73;;;4.00;99.90;;;;;;5008577;28;20207;-65
2021/03/22 05:15:56;;;;;;;11.53;5.40;;;4.00;99.90;;;;;;5011905;28;20219;-65
2021/03/22 05:18:24;;;;;;;20.73;8.37;;;4.00;99.90;;;;;;5011915;28;20457;-65
2021/03/22 05:20:53;;;;;;;15.50;4.87;;;3.90;99.90;;;;;;5010933;28;20462;-66
2021/03/22 05:23:22;;;;;;;14.10;5.20;;;4.00;99.90;;;;;;4993740;28;20436;-65
2021/03/22 05:25:49;;;;;;;15.03;5.03;;;3.90;99.90;;;;;;5011331;28;20433;-65
2021/03/22 05:28:16;;;;;;;13.40;5.00;;;4.00;99.90;;;;;;5011522;28;20429;-65
2021/03/22 05:30:42;;;;;;;10.33;4.17;;;4.00;99.90;;;;;;5010564;28;20426;-66
2021/03/22 05:33:11;;;;;;;17.53;5.20;;;4.00;99.90;;;;;;5011079;28;20944;-66
2021/03/22 05:35:38;;;;;;;14.27;5.23;;;4.00;99.90;;;;;;5011347;28;20187;-65
2021/03/22 05:38:05;;;;;;;10.17;5.37;;;4.00;99.90;;;;;;5011332;28;20823;-66
2021/03/22 05:40:40;;;;;;;20.00;5.97;;;4.00;99.90;;;;;;5010587;28;20873;-65
2021/03/22 05:43:28;;;;;;;18.37;5.00;;;4.10;99.90;;;;;;5011387;28;20442;-64
2021/03/22 05:46:06;;;;;;;20.50;5.73;;;4.10;99.90;;;;;;5007454;28;20483;-65
2021/03/22 05:49:09;;;;;;;16.43;5.30;;;4.10;99.90;;;;;;4993208;28;20514;-65
2021/03/22 05:51:53;;;;;;;15.60;5.50;;;4.10;99.90;;;;;;4999380;28;20445;-65
2021/03/22 05:54:46;;;;;;;25.63;6.40;;;4.20;99.90;;;;;;5010793;28;20453;-65
2021/03/22 05:57:41;;;;;;;12.63;5.43;;;4.10;99.90;;;;;;5008031;28;20543;-65
2021/03/22 06:00:20;;;;;;;15.83;4.73;;;4.20;99.90;;;;;;4998434;28;20453;-64
2021/03/22 06:02:52;;;;;;;16.20;6.07;;;4.20;99.90;;;;;;5011154;28;20444;-65
2021/03/22 06:05:44;;;;;;;14.10;5.80;;;4.20;99.90;;;;;;5010999;28;20863;-65
2021/03/22 06:08:45;;;;;;;11.23;4.30;;;4.20;99.90;;;;;;5011185;28;20426;-65
2021/03/22 06:11:31;;;;;;;14.60;4.50;;;4.20;99.90;;;;;;5011684;28;20441;-66
2021/03/22 06:14:19;;;;;;;20.50;6.03;;;4.20;99.90;;;;;;4994116;28;20465;-65
2021/03/22 06:16:51;;;;;;;8.67;5.07;;;4.20;99.90;;;;;;4997675;28;20469;-65
2021/03/22 06:19:18;;;;;;;18.07;5.33;;;4.20;99.90;;;;;;4996374;28;21022;-65
2021/03/22 06:21:47;;;;;;;13.63;5.67;;;4.20;99.90;;;;;;5004621;28;20461;-65
2021/03/22 06:24:19;;;;;;;20.83;6.70;;;4.10;99.90;;;;;;5003166;28;20462;-65
2021/03/22 06:26:56;;;;;;;13.43;6.47;;;4.20;99.90;;;;;;5011901;28;20422;-65
2021/03/22 06:29:48;;;;;;;12.73;4.90;;;4.20;99.90;;;;;;5008528;28;20468;-65
2021/03/22 06:32:26;;;;;;;15.27;5.43;;;4.20;99.90;;;;;;5003061;28;20474;-65
2021/03/22 06:34:59;;;;;;;15.40;5.23;;;4.20;99.90;;;;;;5006149;28;20524;-65
2021/03/22 06:37:31;;;;;;;15.20;5.97;;;4.20;99.90;;;;;;5003487;28;20434;-65
2021/03/22 06:40:33;;;;;;;13.63;6.07;;;4.20;99.90;;;;;;5008918;28;20464;-65
2021/03/22 06:43:15;;;;;;;19.47;5.70;;;4.30;99.90;;;;;;5010488;28;20800;-65
2021/03/22 06:46:07;;;;;;;20.00;5.17;;;4.40;99.90;;;;;;5000998;28;20443;-65
2021/03/22 06:48:35;;;;;;;20.63;5.80;;;4.40;99.90;;;;;;5000510;28;20828;-66
2021/03/22 06:51:03;;;;;;;21.80;4.73;;;4.30;99.90;;;;;;5009158;28;20437;-65
2021/03/22 06:53:41;;;;;;;22.40;5.47;;;4.40;99.90;;;;;;5010363;28;20450;-66
2021/03/22 06:56:13;;;;;;;21.90;7.60;;;4.40;99.90;;;;;;4999545;28;20445;-64
2021/03/22 06:58:38;;;;;;;20.13;6.67;;;4.40;99.90;;;;;;5009681;28;20430;-64
2021/03/22 07:01:16;;;;;;;29.83;8.60;;;4.50;99.90;;;;;;5007112;28;20461;-64
2021/03/22 07:03:42;;;;;;;19.77;6.70;;;4.50;99.90;;;;;;5006339;28;20209;-64
2021/03/22 07:06:17;;;;;;;20.23;7.00;;;4.60;99.90;;;;;;5005256;28;20426;-63
2021/03/22 07:08:43;;;;;;;20.20;6.23;;;4.60;99.90;;;;;;4988822;28;20432;-64
2021/03/22 07:11:18;;;;;;;22.00;5.87;;;4.60;99.90;;;;;;4988284;28;21359;-64
2021/03/22 07:14:02;;;;;;;17.90;5.50;;;4.60;99.90;;;;;;4988200;28;20752;-64
2021/03/22 07:16:33;;;;;;;20.50;6.37;;;4.60;99.90;;;;;;4983610;28;20445;-63
2021/03/22 07:19:15;;;;;;;13.97;6.17;;;4.60;99.90;;;;;;4990554;28;20687;-64
2021/03/22 07:21:52;;;;;;;19.17;5.80;;;4.60;99.90;;;;;;4997046;28;20545;-64
2021/03/22 07:24:27;;;;;;;16.17;6.10;;;4.50;99.90;;;;;;4997042;28;20457;-64
2021/03/22 07:26:59;;;;;;;12.70;4.57;;;4.60;99.90;;;;;;4995795;28;21308;-63
2021/03/22 07:29:56;;;;;;;10.20;4.60;;;4.60;99.90;;;;;;4994891;28;21162;-64
2021/03/22 07:32:39;;;;;;;20.27;5.47;;;4.70;99.90;;;;;;4987760;28;20516;-65
2021/03/22 07:35:27;;;;;;;21.10;6.83;;;4.80;99.90;;;;;;4987358;28;20578;-64
2021/03/22 07:38:18;;;;;;;16.63;4.67;;;4.90;99.90;;;;;;4999069;28;20468;-65
2021/03/22 07:40:50;;;;;;;19.03;4.67;;;5.00;99.90;;;;;;5005262;28;20956;-64
2021/03/22 07:43:29;;;;;;;21.43;5.90;;;5.10;99.90;;;;;;5006380;28;20467;-65
2021/03/22 07:46:23;;;;;;;21.87;8.40;;;5.00;99.90;;;;;;4994895;28;20437;-65
2021/03/22 07:48:54;;;;;;;13.83;5.27;;;5.10;99.90;;;;;;4987867;28;20430;-66
2021/03/22 07:51:34;;;;;;;17.27;4.23;;;5.20;99.90;;;;;;4988058;28;20523;-65
2021/03/22 07:54:21;;;;;;;9.53;4.07;;;5.10;99.90;;;;;;5002273;28;20460;-66
2021/03/22 07:57:12;;;;;;;15.33;4.13;;;5.20;99.90;;;;;;5002982;28;20498;-66
2021/03/22 08:00:05;;;;;;;16.37;4.47;;;5.20;99.90;;;;;;4995469;28;20972;-65
2021/03/22 08:03:01;;;;;;;13.57;4.67;;;5.10;99.90;;;;;;4998381;28;21137;-64
2021/03/22 08:05:47;;;;;;;12.90;4.20;;;5.20;99.90;;;;;;4994823;28;20504;-64
2021/03/22 08:08:38;;;;;;;14.63;5.40;;;5.40;99.90;;;;;;4986181;28;20988;-65
2021/03/22 08:11:13;;;;;;;9.70;4.63;;;5.30;99.90;;;;;;4990011;28;20441;-65
2021/03/22 08:13:47;;;;;;;11.50;3.97;;;5.50;99.90;;;;;;4985913;28;20802;-65
2021/03/22 08:16:44;;;;;;;10.20;3.50;;;5.50;99.90;;;;;;4986615;28;20437;-65
2021/03/22 08:19:27;;;;;;;12.07;3.40;;;5.60;99.90;;;;;;4991814;28;20556;-65
2021/03/22 08:22:11;;;;;;;10.50;2.87;;;5.60;99.90;;;;;;4987047;28;20520;-65
2021/03/22 08:24:55;;;;;;;6.33;3.70;;;5.40;99.90;;;;;;4988693;28;20480;-65
2021/03/22 08:27:26;;;;;;;21.53;7.53;;;5.50;99.90;;;;;;4989342;28;20434;-63
2021/03/22 08:30:37;;;;;;;9.50;5.60;;;5.50;99.90;;;;;;4996857;28;20540;-64
2021/03/22 08:33:27;;;;;;;8.47;3.83;;;5.50;99.90;;;;;;4945018;28;20443;-65
2021/03/22 08:36:05;;;;;;;12.43;3.23;;;5.50;99.90;;;;;;4937022;29;20453;-64
2021/03/22 08:38:43;;;;;;;10.87;3.60;;;5.60;99.90;;;;;;4974586;28;20485;-66
2021/03/22 08:41:29;;;;;;;10.00;4.47;;;5.70;99.90;;;;;;4993898;28;20461;-66
2021/03/22 08:44:09;;;;;;;11.80;4.17;;;5.70;99.90;;;;;;4996203;28;20458;-64
2021/03/22 08:46:38;;;;;;;8.93;3.30;;;5.80;99.90;;;;;;5005522;28;20456;-65
2021/03/22 08:49:19;;;;;;;9.10;4.73;;;5.80;99.90;;;;;;5008009;28;20430;-65
2021/03/22 08:51:45;;;;;;;17.20;4.10;;;5.90;99.90;;;;;;4983871;28;20542;-64
2021/03/22 08:54:33;;;;;;;15.40;3.57;;;6.00;99.90;;;;;;4980000;28;21230;-64
2021/03/22 08:57:04;;;;;;;12.47;4.60;;;6.20;99.90;;;;;;4972389;28;20822;-64
2021/03/22 08:59:30;;;;;;;10.23;4.30;;;6.20;99.90;;;;;;4986295;28;20438;-64
2021/03/22 09:02:28;;;;;;;7.47;4.20;;;6.40;99.90;;;;;;4993250;28;20503;-64
2021/03/22 09:04:54;;;;;;;12.57;3.50;;;6.50;99.90;;;;;;4986578;28;20246;-65
2021/03/22 09:07:28;;;;;;;6.90;2.97;;;6.60;99.90;;;;;;4981296;28;20433;-65
2021/03/22 09:10:36;;;;;;;11.10;3.53;;;6.70;99.90;;;;;;4998384;28;21272;-65
2021/03/22 09:13:49;;;;;;;7.33;3.80;;;6.90;99.90;;;;;;4998511;28;20429;-65
2021/03/22 09:16:24;;;;;;;15.00;4.90;;;6.90;99.90;;;;;;4966635;28;20463;-64
2021/03/22 09:19:08;;;;;;;7.70;3.30;;;6.80;99.90;;;;;;4966701;28;20443;-64
2021/03/22 09:21:44;;;;;;;11.47;2.33;;;6.80;99.90;;;;;;4995276;28;20477;-64
2021/03/22 09:24:41;;;;;;;7.77;3.47;;;6.80;99.90;;;;;;5005183;28;20550;-66
2021/03/22 09:27:15;;;;;;;6.27;3.90;;;6.70;99.90;;;;;;5007896;28;20440;-64
2021/03/22 09:30:00;;;;;;;6.80;2.90;;;6.70;99.90;;;;;;5007656;28;20444;-64
2021/03/22 09:32:28;;;;;;;5.50;3.00;;;6.40;99.90;;;;;;4996121;28;20434;-65
2021/03/22 09:35:18;;;;;;;6.50;2.57;;;6.30;99.90;;;;;;5004840;28;21023;-65
2021/03/22 09:37:57;;;;;;;11.37;4.27;;;6.40;99.90;;;;;;5004990;28;20533;-65
2021/03/22 09:40:23;;;;;;;9.70;4.00;;;6.40;99.90;;;;;;5005584;28;20461;-65
2021/03/22 09:43:07;;;;;;;4.60;2.50;;;6.20;99.90;;;;;;5007165;28;20436;-65
2021/03/22 09:45:56;;;;;;;9.20;3.17;;;6.30;99.90;;;;;;5007538;28;20345;-65
2021/03/22 09:48:24;;;;;;;10.63;4.07;;;6.20;99.90;;;;;;4994021;28;20968;-65
2021/03/22 09:51:11;;;;;;;7.50;3.30;;;6.20;99.90;;;;;;5002648;28;20434;-65
2021/03/22 09:54:02;;;;;;;10.37;3.97;;;6.30;99.90;;;;;;5006884;28;20523;-66
2021/03/22 09:56:29;;;;;;;5.23;2.80;;;6.50;99.90;;;;;;5005477;28;20504;-65
2021/03/22 09:59:20;;;;;;;11.77;3.37;;;6.80;99.90;;;;;;5003746;28;20855;-66
2021/03/22 10:01:46;;;;;;;9.20;3.77;;;6.90;99.90;;;;;;5004695;28;20461;-65
2021/03/22 10:04:13;;;;;;;6.33;3.00;;;7.00;99.90;;;;;;5007307;28;20460;-65
2021/03/22 10:06:45;;;;;;;8.40;3.70;;;7.00;99.90;;;;;;5003085;28;20183;-65
2021/03/22 10:09:23;;;;;;;7.30;3.70;;;7.10;99.90;;;;;;5006440;28;20932;-65
2021/03/22 10:11:50;;;;;;;8.03;3.20;;;7.30;99.90;;;;;;5007168;28;20960;-64
2021/03/22 10:14:33;;;;;;;4.97;2.83;;;7.50;99.90;;;;;;5003557;28;20526;-66
2021/03/22 10:16:59;;;;;;;7.07;3.00;;;7.80;99.90;;;;;;5005796;28;20437;-65
2021/03/22 10:19:28;;;;;;;8.50;3.63;;;8.00;99.90;;;;;;4984601;28;20470;-65
2021/03/22 10:21:59;;;;;;;7.13;3.70;;;8.00;99.90;;;;;;5007130;28;20444;-65
2021/03/22 10:24:52;;;;;;;6.33;3.20;;;7.70;99.90;;;;;;5006255;28;20503;-65
2021/03/22 10:27:25;;;;;;;7.40;4.53;;;7.50;99.90;;;;;;5005932;28;20434;-65
2021/03/22 10:30:05;;;;;;;13.53;4.23;;;7.40;99.90;;;;;;4989362;28;20561;-65
2021/03/22 10:32:32;;;;;;;7.03;3.17;;;7.20;99.90;;;;;;5005519;28;20536;-66
2021/03/22 10:35:11;;;;;;;14.37;4.17;;;7.10;99.90;;;;;;5011630;23;20640;-67
2021/03/22 10:37:50;;;;;;;8.60;5.63;;;6.90;99.90;;;;;;5006920;28;20178;-68
2021/03/22 10:40:23;;;;;;;9.70;4.47;;;6.70;99.90;;;;;;5005204;28;20457;-68
2021/03/22 10:42:51;;;;;;;7.87;4.20;;;6.60;99.90;;;;;;5006806;28;21074;-67
2021/03/22 10:45:23;;;;;;;14.37;7.77;;;6.50;99.90;;;;;;5007134;28;20507;-67
2021/03/22 10:47:50;;;;;;;9.07;4.10;;;6.40;99.90;;;;;;4989124;28;20429;-67
2021/03/22 10:50:26;;;;;;;12.77;4.30;;;6.40;99.90;;;;;;5001039;28;20532;-67
2021/03/22 10:53:11;;;;;;;7.60;4.13;;;6.30;99.90;;;;;;5005464;28;20434;-68
2021/03/22 10:55:38;;;;;;;9.87;6.33;;;6.30;99.90;;;;;;5002762;28;20484;-66
2021/03/22 10:58:07;;;;;;;5.80;5.20;;;6.10;99.90;;;;;;5002958;28;20441;-67
2021/03/22 11:00:41;;;;;;;10.73;3.90;;;6.00;99.90;;;;;;4999662;28;20465;-67
2021/03/22 11:03:08;;;;;;;8.90;4.13;;;6.00;99.90;;;;;;4988865;28;20462;-67
2021/03/22 11:05:37;;;;;;;9.70;4.23;;;6.20;99.90;;;;;;5003327;28;20507;-67
2021/03/22 11:08:07;;;;;;;8.60;3.03;;;6.10;99.90;;;;;;4995430;28;21009;-68
2021/03/22 11:10:35;;;;;;;8.60;3.13;;;6.30;99.90;;;;;;4992068;28;20441;-68
2021/03/22 11:13:01;;;;;;;6.57;3.20;;;6.40;99.90;;;;;;4999047;28;20445;-67
2021/03/22 11:15:32;;;;;;;6.70;2.83;;;6.50;99.90;;;;;;4997999;28;20470;-68
2021/03/22 11:17:58;;;;;;;8.20;2.77;;;6.60;99.90;;;;;;4991565;28;20431;-67
2021/03/22 11:20:28;;;;;;;10.97;3.67;;;6.80;99.90;;;;;;5006183;28;20830;-67
2021/03/22 11:23:13;;;;;;;13.43;4.10;;;6.80;99.90;;;;;;5016791;28;20434;-68
2021/03/22 11:25:39;;;;;;;12.00;3.77;;;6.80;99.90;;;;;;5009498;28;20468;-68
2021/03/22 11:28:16;;;;;;;4.40;2.93;;;6.80;99.90;;;;;;5015998;28;20430;-68
2021/03/22 11:30:59;;;;;;;8.37;3.03;;;6.80;99.90;;;;;;4999797;28;20180;-67
2021/03/22 11:33:38;;;;;;;7.13;3.70;;;6.80;99.90;;;;;;4990596;28;20513;-68
2021/03/22 11:36:29;;;;;;;7.87;3.00;;;6.70;99.90;;;;;;4978311;28;20478;-67
2021/03/22 11:39:00;;;;;;;8.60;3.60;;;6.80;99.90;;;;;;4991091;28;20493;-66
2021/03/22 11:41:52;;;;;;;9.17;4.90;;;6.80;99.90;;;;;;5004727;28;20496;-68
2021/03/22 11:44:39;;;;;;;8.03;3.73;;;6.70;99.90;;;;;;4988826;28;20434;-70
2021/03/22 11:47:44;;;;;;;12.97;8.87;;;6.60;99.90;;;;;;4980370;28;20438;-67
2021/03/22 11:50:22;;;;;;;11.63;5.00;;;6.60;99.90;;;;;;4999055;28;20470;-68
2021/03/22 11:53:03;;;;;;;5.23;3.93;;;6.60;99.90;;;;;;4995298;28;20788;-69
2021/03/22 11:55:51;;;;;;;10.23;4.57;;;6.60;99.90;;;;;;4999710;28;20486;-67
2021/03/22 11:58:22;;;;;;;11.73;3.57;;;6.60;99.90;;;;;;4992453;28;20439;-67
2021/03/22 12:00:48;;;;;;;11.37;3.83;;;6.60;99.90;;;;;;5002826;28;20465;-67
2021/03/22 12:03:28;;;;;;;8.30;3.37;;;6.70;99.90;;;;;;5004377;28;20812;-68
2021/03/22 12:06:22;;;;;;;9.97;5.37;;;6.80;99.90;;;;;;4991709;28;20238;-69
2021/03/22 12:08:53;;;;;;;5.77;3.70;;;6.80;99.90;;;;;;4993754;28;20431;-69
2021/03/22 12:11:30;;;;;;;10.07;4.70;;;7.00;99.90;;;;;;5001205;28;20433;-68
2021/03/22 12:13:58;;;;;;;7.27;4.20;;;7.40;99.90;;;;;;4994808;28;20949;-68
2021/03/22 12:16:27;;;;;;;7.13;4.50;;;7.60;99.90;;;;;;5016749;28;20467;-69
2021/03/22 12:18:55;;;;;;;8.10;4.70;;;7.80;99.90;;;;;;5004390;28;20918;-69
2021/03/22 12:21:21;;;;;;;5.37;3.40;;;8.10;99.90;;;;;;4999109;28;20457;-69
2021/03/22 12:23:48;;;;;;;7.53;4.00;;;8.20;99.90;;;;;;5005952;28;20538;-68
2021/03/22 12:26:16;;;;;;;9.10;6.07;;;8.30;99.90;;;;;;4993514;28;20455;-67
2021/03/22 12:28:54;;;;;;;6.00;3.63;;;8.50;99.90;;;;;;4996212;28;20440;-68
2021/03/22 12:31:30;;;;;;;7.37;3.93;;;8.50;99.90;;;;;;4999323;28;20830;-69
2021/03/22 12:33:58;;;;;;;5.30;3.57;;;8.30;99.90;;;;;;4994299;28;20441;-69
2021/03/22 12:36:24;;;;;;;9.57;4.13;;;8.10;99.90;;;;;;5003811;28;20465;-69
2021/03/22 12:38:49;;;;;;;3.70;2.80;;;7.80;99.90;;;;;;4996578;28;20575;-68
2021/03/22 12:41:29;;;;;;;13.13;3.93;;;7.70;99.90;;;;;;5008895;28;20556;-69
2021/03/22 12:43:57;;;;;;;6.30;3.50;;;7.70;99.90;;;;;;5004494;28;20229;-71
2021/03/22 12:46:23;;;;;;;6.27;3.60;;;7.70;99.90;;;;;;5005637;28;20980;-68
2021/03/22 12:48:49;;;;;;;5.40;3.00;;;7.70;99.90;;;;;;4992590;28;20442;-67
2021/03/22 12:51:14;;;;;;;6.60;3.00;;;7.70;99.90;;;;;;4998045;28;20186;-66
2021/03/22 12:53:40;;;;;;;7.73;3.63;;;7.60;99.90;;;;;;5003254;28;20190;-66
2021/03/22 12:56:06;;;;;;;8.73;5.63;;;7.40;99.90;;;;;;5007427;28;20195;-68
2021/03/22 12:58:32;;;;;;;7.83;3.77;;;7.30;99.90;;;;;;4991856;28;20664;-67
2021/03/22 13:00:58;;;;;;;6.57;3.33;;;7.30;99.90;;;;;;4996589;28;20214;-67
2021/03/22 13:03:27;;;;;;;5.77;3.80;;;7.40;99.90;;;;;;5003279;28;21207;-67
2021/03/22 13:05:54;;;;;;;8.00;3.90;;;7.40;99.90;;;;;;4994593;28;20446;-67
2021/03/22 13:08:28;;;;;;;5.00;3.17;;;7.30;99.90;;;;;;4997273;28;21009;-67
2021/03/22 13:10:55;;;;;;;6.70;3.23;;;7.40;99.90;;;;;;4984695;28;20442;-67
2021/03/22 13:13:21;;;;;;;5.87;4.37;;;7.40;99.90;;;;;;5000133;28;20450;-67
2021/03/22 13:15:50;;;;;;;11.33;4.00;;;7.40;99.90;;;;;;4985716;28;20459;-66
2021/03/22 13:18:28;;;;;;;6.90;4.40;;;7.30;99.90;;;;;;5005245;28;20174;-67
2021/03/22 13:21:09;;;;;;;5.43;4.10;;;7.30;99.90;;;;;;5001772;28;20523;-69